This is the latest recevied weather packets stored in our database for station/object DL3NBY. If no packets are shown the sender has not sent any weather packets the latest 10 day(s).
| Time | Temp. | Humidity | Pressure | Rain* | Wind** | Luminosity | Snow |
|---|---|---|---|---|---|---|---|
| 1778015422 | 12.22° C | 99% | 1006.1 hPa | 0 mm | - | - | - |
| 1778014819 | 12.22° C | 99% | 1006 hPa | 0 mm | - | - | - |
| 1778012467 | 12.78° C | 99% | 1005.4 hPa | 0.25 mm | - | - | - |
| 1778009451 | 12.78° C | 99% | 1005.7 hPa | 0 mm | - | - | - |
| 1778000463 | 13.33° C | 99% | 1005.1 hPa | 10.41 mm | - | - | - |
| 1777999257 | 13.89° C | 99% | 1005.3 hPa | 9.4 mm | - | - | - |
| 1777998051 | 15.56° C | 95% | 1005.1 hPa | 1.27 mm | - | - | - |
| 1777997467 | 16.11° C | 91% | 1004.2 hPa | 0 mm | - | - | - |
| 1777996844 | 16.11° C | 91% | 1004.1 hPa | 0 mm | - | - | - |
| 1777996261 | 16.67° C | 87% | 1004.1 hPa | 0 mm | - | - | - |
| 1777989666 | 23.33° C | 57% | 1004.2 hPa | 0 mm | - | - | - |
| 1777989064 | 23.89° C | 55% | 1004.3 hPa | 0 mm | - | - | - |
| 1777987274 | 23.33° C | 58% | 1004.6 hPa | 0 mm | - | - | - |
| 1777983635 | 25° C | 52% | 1005.3 hPa | 0 mm | - | - | - |
| 1777981222 | 23.33° C | 59% | 1005.7 hPa | 0 mm | - | - | - |
| 1777978267 | 22.22° C | 58% | 1006.1 hPa | 0 mm | - | - | - |
| 1777977101 | 22.22° C | 65% | 1006.3 hPa | 0 mm | - | - | - |
| 1777975251 | 20.56° C | 72% | 1006.8 hPa | 0 mm | - | - | - |
| 1777968073 | 16.67° C | 89% | 1007.8 hPa | 0 mm | - | - | - |
| 1777967490 | 16.11° C | 89% | 1008 hPa | 0 mm | - | - | - |
| 1777965660 | 16.11° C | 90% | 1007.9 hPa | 0 mm | - | - | - |
| 1777957839 | 12.78° C | 99% | 1007.9 hPa | 0 mm | - | - | - |
| 1777955467 | 12.22° C | 99% | 1007.8 hPa | 0 mm | - | - | - |
| 1777953657 | 12.22° C | 99% | 1008 hPa | 0 mm | - | - | - |
| 1777951245 | 12.22° C | 99% | 1008.3 hPa | 0 mm | - | - | - |
* Rain latest hour (hover to see other rain measurements)
** Current wind speed in m/s (hover to see current wind gust speed)